Time;durP1;ratioP1;P1;durP2;ratioP2;P2;SDS_P1;SDS_P2;PMS_P1;PMS_P2;Temp;Humidity;BMP_temperature;BMP_pressure;BME280_temperature;BME280_humidity;BME280_pressure;Samples;Min_cycle;Max_cycle;Signal;HPM_P1;HPM_P2
2021/12/24 00:03:48;;;;;;;10.25;7.70;;;;;;;20.19;nan;99866.78;20404770;28;102395;-58
2021/12/24 00:13:50;;;;;;;10.55;8.10;;;;;;;20.16;nan;99877.53;20397955;28;102219;-57
2021/12/24 00:44:29;;;;;;;12.60;8.57;;;;;;;20.04;nan;99803.13;20400467;28;99120;-57
2021/12/24 01:04:48;;;;;;;9.88;8.20;;;;;;;19.97;nan;99767.84;20398706;28;98183;-58
2021/12/24 01:14:49;;;;;;;11.73;8.75;;;;;;;19.95;nan;99731.16;20425280;28;103662;-57
2021/12/24 01:25:03;;;;;;;12.07;8.95;;;;;;;19.93;nan;99683.16;20409455;28;98885;-58
2021/12/24 01:45:30;;;;;;;12.27;9.13;;;;;;;19.91;nan;99660.56;20412231;28;102100;-58
2021/12/24 01:55:31;;;;;;;12.68;9.10;;;;;;;19.89;nan;99670.41;20394986;28;102070;-61
2021/12/24 02:05:31;;;;;;;12.27;8.20;;;;;;;19.87;nan;99667.88;20391412;28;100452;-57
2021/12/24 02:36:00;;;;;;;11.43;9.10;;;;;;;19.86;nan;99597.94;20395119;28;97719;-57
2021/12/24 02:46:11;;;;;;;11.60;8.93;;;;;;;19.87;nan;99580.34;20385666;28;98828;-56
2021/12/24 02:56:13;;;;;;;13.77;9.40;;;;;;;19.84;nan;99561.25;20430123;28;100739;-58
2021/12/24 03:06:39;;;;;;;12.38;8.85;;;;;;;19.86;nan;99557.66;20407740;28;101361;-57
2021/12/24 03:16:44;;;;;;;11.80;8.27;;;;;;;19.84;nan;99590.16;20405861;28;102495;-57
2021/12/24 03:26:45;;;;;;;12.30;9.38;;;;;;;19.83;nan;99591.16;20396787;28;101122;-57
2021/12/24 03:36:48;;;;;;;13.15;9.48;;;;;;;19.82;nan;99557.91;20401020;28;98799;-58
2021/12/24 03:46:59;;;;;;;12.33;8.97;;;;;;;19.83;nan;99533.34;20402178;28;103225;-57
2021/12/24 03:56:59;;;;;;;12.88;9.45;;;;;;;19.83;nan;99514.06;20402203;28;99320;-58
2021/12/24 04:07:00;;;;;;;12.98;9.43;;;;;;;19.83;nan;99479.94;20423012;28;101608;-57
2021/12/24 04:17:00;;;;;;;12.98;9.38;;;;;;;19.82;nan;99450.22;20403977;28;102271;-59
2021/12/24 04:27:01;;;;;;;11.95;9.18;;;;;;;19.82;nan;99454.63;20405882;28;99238;-57
2021/12/24 05:18:36;;;;;;;13.75;9.43;;;;;;;19.89;nan;99423.44;20403308;28;98784;-58
2021/12/24 05:28:38;;;;;;;12.82;9.35;;;;;;;19.97;nan;99411.28;20404550;28;99052;-58
2021/12/24 05:38:39;;;;;;;13.65;9.80;;;;;;;20.04;nan;99402.84;20424299;28;100838;-58
2021/12/24 05:48:41;;;;;;;13.52;9.52;;;;;;;20.11;nan;99417.13;20408490;28;101194;-57
2021/12/24 05:58:41;;;;;;;13.25;9.45;;;;;;;20.15;nan;99447.41;20422733;28;99332;-57
2021/12/24 06:08:44;;;;;;;14.38;9.65;;;;;;;20.20;nan;99434.72;20408406;28;99759;-58
2021/12/24 06:18:46;;;;;;;14.27;9.80;;;;;;;20.27;nan;99424.47;20404181;28;100651;-57
2021/12/24 06:28:47;;;;;;;28.05;10.23;;;;;;;20.31;nan;99407.44;20396747;28;99467;-58
2021/12/24 06:38:49;;;;;;;15.02;10.40;;;;;;;20.40;nan;99403.19;20388752;28;100008;-57
2021/12/24 06:48:56;;;;;;;23.42;12.70;;;;;;;20.46;nan;99395.56;20392475;28;101816;-56
2021/12/24 06:58:56;;;;;;;23.67;12.52;;;;;;;20.60;nan;99383.81;20401076;28;99100;-57
2021/12/24 07:08:57;;;;;;;21.95;12.55;;;;;;;20.71;nan;99382.00;20395386;28;99105;-57
2021/12/24 07:19:00;;;;;;;27.55;11.55;;;;;;;20.86;nan;99409.56;20375256;28;104003;-57
2021/12/24 07:29:01;;;;;;;24.17;13.52;;;;;;;20.95;nan;99392.91;20371052;28;100229;-59
2021/12/24 07:39:03;;;;;;;17.45;12.70;;;;;;;21.09;nan;99401.34;20387649;28;99984;-58
2021/12/24 07:49:18;;;;;;;27.23;13.47;;;;;;;21.19;nan;99346.88;20418995;28;99418;-57
2021/12/24 07:59:19;;;;;;;22.95;14.13;;;;;;;21.28;nan;99342.53;20399841;28;100360;-58
2021/12/24 08:09:21;;;;;;;26.02;17.20;;;;;;;20.56;nan;99360.56;20424605;28;102494;-57
2021/12/24 08:19:21;;;;;;;23.52;15.82;;;;;;;20.07;nan;99339.53;20402364;28;103008;-57
2021/12/24 08:29:23;;;;;;;36.25;15.73;;;;;;;20.15;nan;99314.22;20390491;28;99971;-57
2021/12/24 08:39:23;;;;;;;20.63;13.82;;;;;;;20.54;nan;99317.78;20395282;28;101010;-60
2021/12/24 08:49:26;;;;;;;21.95;12.88;;;;;;;20.81;nan;99317.06;20425395;28;99442;-57
2021/12/24 08:59:27;;;;;;;29.53;13.73;;;;;;;21.01;nan;99294.16;20396087;28;102789;-57
2021/12/24 09:09:29;;;;;;;27.27;13.23;;;;;;;21.17;nan;99306.69;20412135;28;100189;-57
2021/12/24 09:19:31;;;;;;;24.23;13.57;;;;;;;21.31;nan;99309.81;20395723;28;99178;-58
2021/12/24 09:29:32;;;;;;;24.27;14.13;;;;;;;20.99;nan;99305.81;20393400;28;99323;-58
2021/12/24 09:39:33;;;;;;;20.67;13.35;;;;;;;21.05;nan;99278.91;20392808;28;102648;-57
2021/12/24 09:49:34;;;;;;;24.67;12.30;;;;;;;21.26;nan;99257.59;20408964;28;99740;-57
2021/12/24 09:59:36;;;;;;;35.22;11.65;;;;;;;21.42;nan;99238.53;20414429;28;100919;-59
2021/12/24 10:09:45;;;;;;;23.50;12.20;;;;;;;21.62;nan;99236.63;20397121;28;98341;-60
2021/12/24 10:19:53;;;;;;;18.77;11.05;;;;;;;21.77;nan;99244.84;20410291;28;100672;-57
2021/12/24 10:29:54;;;;;;;20.23;10.10;;;;;;;21.94;nan;99226.53;20401898;28;102709;-59
2021/12/24 10:39:56;;;;;;;18.48;10.48;;;;;;;22.15;nan;99229.66;20391127;28;99476;-59
2021/12/24 11:00:50;;;;;;;20.05;10.10;;;;;;;22.60;nan;99224.41;20410777;28;98459;-57
2021/12/24 11:10:57;;;;;;;19.88;9.68;;;;;;;22.75;nan;99222.81;20412662;28;101388;-58
2021/12/24 11:21:00;;;;;;;24.15;8.85;;;;;;;22.90;nan;99215.13;20411414;28;99144;-58
2021/12/24 11:31:04;;;;;;;;;;;;;;;23.03;nan;99217.31;20395067;28;100303;-58
2021/12/24 11:41:10;;;;;;;17.85;9.00;;;;;;;23.11;nan;99195.41;20397446;28;102260;-59
2021/12/24 11:51:26;;;;;;;20.38;10.27;;;;;;;22.97;nan;99181.84;20414100;28;100079;-57
2021/12/24 12:01:36;;;;;;;31.95;10.43;;;;;;;22.83;nan;99170.06;20391872;28;104114;-62
2021/12/24 12:11:39;;;;;;;17.65;11.00;;;;;;;22.36;nan;99162.56;20394404;28;103319;-58
2021/12/24 12:32:37;;;;;;;32.20;11.50;;;;;;;22.58;nan;99178.88;20417929;28;101716;-56
2021/12/24 12:52:54;;;;;;;;;;;;;;;21.87;nan;99179.72;20445031;28;101463;-59
2021/12/24 13:03:07;;;;;;;19.45;9.93;;;;;;;21.93;nan;99180.91;20425877;28;103012;-58
2021/12/24 13:13:08;;;;;;;;;;;;;;;22.00;nan;99168.75;20418295;28;100186;-59
2021/12/24 13:23:23;;;;;;;16.02;8.50;;;;;;;22.42;nan;99188.34;20387761;28;102271;-59
2021/12/24 13:33:23;;;;;;;10.82;7.82;;;;;;;22.63;nan;99182.69;20376948;28;98384;-59
2021/12/24 13:43:25;;;;;;;23.25;12.85;;;;;;;22.84;nan;99199.94;20416293;28;103081;-57
2021/12/24 14:03:56;;;;;;;23.33;13.60;;;;;;;23.10;nan;99201.69;20383449;28;103594;-58
2021/12/24 14:14:04;;;;;;;23.37;11.70;;;;;;;23.15;nan;99202.84;20377817;28;103514;-58
2021/12/24 14:24:27;;;;;;;20.17;10.63;;;;;;;23.16;nan;99209.81;20398306;28;99330;-59
2021/12/24 14:34:34;;;;;;;18.05;9.73;;;;;;;23.18;nan;99204.38;20421958;28;100103;-56
2021/12/24 14:44:39;;;;;;;18.52;9.75;;;;;;;23.20;nan;99210.31;20403085;28;100363;-58
2021/12/24 14:55:16;;;;;;;14.93;8.65;;;;;;;23.24;nan;99219.59;20402980;28;103742;-57
2021/12/24 15:05:32;;;;;;;17.45;8.52;;;;;;;23.17;nan;99216.75;20408661;28;102026;-58
2021/12/24 15:15:33;;;;;;;11.07;7.65;;;;;;;23.24;nan;99213.47;20422587;28;100598;-58
2021/12/24 15:25:36;;;;;;;13.07;8.33;;;;;;;23.20;nan;99199.75;20451585;28;98144;-59
2021/12/24 15:35:37;;;;;;;13.55;7.55;;;;;;;23.15;nan;99196.75;20461562;28;99822;-60
2021/12/24 15:45:39;;;;;;;14.45;7.53;;;;;;;23.11;nan;99198.06;20413914;28;102442;-59
2021/12/24 15:55:42;;;;;;;12.20;7.57;;;;;;;23.10;nan;99206.97;20425628;28;103049;-58
2021/12/24 16:05:46;;;;;;;11.60;7.47;;;;;;;23.10;nan;99222.81;20420229;28;98197;-58
2021/12/24 16:15:50;;;;;;;12.85;7.38;;;;;;;23.08;nan;99217.66;20434911;28;99379;-58
2021/12/24 16:25:53;;;;;;;10.65;6.20;;;;;;;23.09;nan;99226.44;20408341;28;98626;-57
2021/12/24 16:35:54;;;;;;;10.20;6.40;;;;;;;23.11;nan;99229.75;20412103;28;97548;-58
2021/12/24 16:45:55;;;;;;;11.85;6.60;;;;;;;23.15;nan;99237.16;20451286;28;98347;-57
2021/12/24 16:55:55;;;;;;;11.55;6.18;;;;;;;23.24;nan;99258.34;20434992;28;101254;-57
2021/12/24 17:05:57;;;;;;;9.15;5.97;;;;;;;23.30;nan;99237.44;20397713;28;100931;-57
2021/12/24 17:15:58;;;;;;;8.80;5.50;;;;;;;23.33;nan;99249.47;20401366;27;98152;-58
2021/12/24 17:26:04;;;;;;;8.90;5.60;;;;;;;23.39;nan;99246.19;20428822;28;99941;-58
2021/12/24 17:36:05;;;;;;;7.53;5.53;;;;;;;23.47;nan;99240.09;20421146;28;101521;-58
2021/12/24 17:46:06;;;;;;;7.30;5.30;;;;;;;23.53;nan;99228.88;20411238;28;99226;-58
2021/12/24 17:56:07;;;;;;;7.47;4.80;;;;;;;23.58;nan;99216.03;20434408;28;98254;-58
2021/12/24 18:06:07;;;;;;;10.03;4.67;;;;;;;23.61;nan;99220.16;20388719;28;98205;-58
2021/12/24 18:16:09;;;;;;;5.63;4.40;;;;;;;23.60;nan;99210.56;20401523;28;99789;-60
2021/12/24 18:26:12;;;;;;;9.70;4.25;;;;;;;23.58;nan;99209.91;20388868;28;103274;-59
2021/12/24 18:36:13;;;;;;;8.00;4.30;;;;;;;23.63;nan;99237.50;20384643;28;103394;-58
2021/12/24 18:46:14;;;;;;;11.70;4.95;;;;;;;23.54;nan;99232.34;20390402;28;99646;-59
2021/12/24 18:56:15;;;;;;;7.57;5.85;;;;;;;23.13;nan;99233.88;20394467;28;111050;-57
2021/12/24 19:06:19;;;;;;;7.55;4.47;;;;;;;23.24;nan;99259.19;20403462;28;100754;-59
2021/12/24 19:16:21;;;;;;;12.68;4.55;;;;;;;23.23;nan;99239.06;20398837;28;101335;-58
2021/12/24 19:26:24;;;;;;;11.77;6.63;;;;;;;22.69;nan;99231.34;20400383;28;100791;-58
2021/12/24 19:36:24;;;;;;;9.70;5.17;;;;;;;22.83;nan;99214.13;20395588;28;103314;-57
2021/12/24 19:46:25;;;;;;;9.63;4.65;;;;;;;22.87;nan;99215.44;20402931;28;101743;-57
2021/12/24 19:56:25;;;;;;;8.82;4.75;;;;;;;22.85;nan;99205.06;20399860;28;100421;-58
2021/12/24 20:06:26;;;;;;;12.30;5.20;;;;;;;22.78;nan;99206.66;20406914;28;101443;-58
2021/12/24 20:16:27;;;;;;;13.25;4.82;;;;;;;22.74;nan;99217.69;20410729;28;101389;-59
2021/12/24 20:26:27;;;;;;;11.95;5.20;;;;;;;22.57;nan;99217.63;20423096;28;102957;-58
2021/12/24 20:36:28;;;;;;;7.82;5.68;;;;;;;22.32;nan;99201.59;20416047;28;99810;-58
2021/12/24 20:46:30;;;;;;;12.27;5.30;;;;;;;22.18;nan;99205.63;20419929;28;99638;-58
2021/12/24 20:56:31;;;;;;;6.27;5.10;;;;;;;22.09;nan;99201.28;20414459;28;97355;-57
2021/12/24 21:06:34;;;;;;;8.45;5.13;;;;;;;21.98;nan;99189.16;20408544;28;101534;-58
2021/12/24 21:16:35;;;;;;;8.63;4.68;;;;;;;21.96;nan;99192.94;20408955;28;102210;-58
2021/12/24 21:26:37;;;;;;;9.20;4.63;;;;;;;21.88;nan;99186.63;20414659;28;97706;-58
2021/12/24 21:36:38;;;;;;;7.97;4.53;;;;;;;21.84;nan;99193.19;20412241;28;101656;-58
2021/12/24 21:46:38;;;;;;;8.38;4.70;;;;;;;21.81;nan;99192.66;20413839;28;101309;-57
2021/12/24 21:56:39;;;;;;;8.13;4.85;;;;;;;21.74;nan;99193.28;20405653;28;103038;-57
2021/12/24 22:17:00;;;;;;;10.05;4.70;;;;;;;21.66;nan;99218.72;20398199;28;101564;-59
2021/12/24 22:27:00;;;;;;;5.65;3.92;;;;;;;21.61;nan;99213.09;20396365;28;101121;-58
2021/12/24 22:37:02;;;;;;;5.30;4.05;;;;;;;21.58;nan;99206.28;20399093;28;101104;-58
2021/12/24 22:47:03;;;;;;;7.67;4.07;;;;;;;21.52;nan;99205.06;20398232;28;99945;-58
2021/12/24 22:57:04;;;;;;;5.10;3.70;;;;;;;21.49;nan;99221.16;20401497;28;99608;-59
2021/12/24 23:07:04;;;;;;;5.25;3.90;;;;;;;21.45;nan;99201.38;20408053;28;103523;-58
2021/12/24 23:17:06;;;;;;;5.10;4.10;;;;;;;21.41;nan;99190.31;20414922;28;102223;-58
2021/12/24 23:27:07;;;;;;;4.53;3.47;;;;;;;21.38;nan;99195.03;20409067;28;107723;-58
2021/12/24 23:37:09;;;;;;;5.05;3.67;;;;;;;21.35;nan;99192.69;20411931;28;99654;-58
2021/12/24 23:47:31;;;;;;;4.10;3.30;;;;;;;21.31;nan;99200.06;20410441;28;99150;-59
2021/12/24 23:57:32;;;;;;;3.90;3.15;;;;;;;21.26;nan;99190.00;20407672;28;101560;-57
